Galston, United Kingdom
Current Conditions -  °F | °C
As of 9:50 PM on Monday 22 Dec 2014 (Local Time) from EGPK Reporting Station
Light Rain Light Rain  
Wind Chill: 43°   Ceiling: 3200
Heat Index: 48°   Visibility: 5mi
Dew Point: 46°   Wind: 12mph
Humidity: 93%   Direction: 230°SW
Pressure: 29.71"   Gusts: NA
Location:  55.6°N, 4.38°W
Report Text: EGPK 222150Z 23010KT 8000 -RA FEW008 SCT018 BKN032 09/08 Q1006
Loading
Personal Weather Stations






























Interactive Weather Map New forecast layout! Learn more

10-Day Weather Forecast

Advertisements
Track Severe Weather on mobile